Terminal Aerodrome Forecast
Issued by NWS

Home | Current Version | Previous Version | Text Only | Print | Product List | Glossary On
Versions: 1 2 3 4 5 6 7 8 9 10 11 12 13 14 15 16 17 18 19 20 21 22 23 24 25 26 27 28 29 30 31 32 33 34 35 36 37 38 39 40
000
FTUS44 KHGX 190528
TAFSGR
TAF
KSGR 190528Z 1906/2006 06006KT 6SM -RA BR OVC009
      TEMPO 1906/1910 4SM -TSRA OVC007CB
     FM191000 02008KT 3SM -RA OVC009
     FM192000 01008KT P6SM VCSH SCT015 BKN020
     FM200300 36007KT P6SM BKN020 OVC050=

USA.gov is the U.S. government's official web portal to all federal, state and local government web resources and services.